Terminal Aerodrome Forecast
Issued by NWS Sterling, VA

Current Version | Previous Version | Graphics & Text | Print | Product List | Glossary On
Versions: 1 2 3 4 5 6 7 8 9 10 11 12 13 14 15 16 17 18 19 20 21
195
FTUS41 KLWX 070530
TAFIAD
TAF
KIAD 070530Z 0706/0812 34005KT 3SM -DZ BR BKN008 OVC015
     FM071000 32005KT 5SM BR SCT008 OVC025
     FM071200 32005KT P6SM BKN050
     FM071500 32008G16KT P6SM SCT050
     FM072100 32006KT P6SM SCT200
     FM080000 VRB03KT P6SM SCT130
     FM080600 VRB03KT P6SM SCT030 BKN130=

USA.gov is the U.S. government's official web portal to all federal, state and local government web resources and services.